createdAt,value
2022-09-13T00:02:15.772Z,55.82
2022-09-13T00:04:43.765Z,55.93
2022-09-13T00:07:10.388Z,56.00
2022-09-13T00:09:37.641Z,55.88
2022-09-13T00:12:04.641Z,55.89
2022-09-13T00:14:31.367Z,55.76
2022-09-13T00:16:58.571Z,55.96
2022-09-13T00:19:25.368Z,55.93
2022-09-13T00:21:52.024Z,55.89
2022-09-13T00:24:18.774Z,55.92
2022-09-13T00:26:45.831Z,56.01
2022-09-13T00:29:12.729Z,56.00
2022-09-13T00:31:39.431Z,55.90
2022-09-13T00:34:06.174Z,56.11
2022-09-13T00:36:32.781Z,56.20
2022-09-13T00:39:02.580Z,56.39
2022-09-13T00:41:30.088Z,56.35
2022-09-13T00:43:59.178Z,56.19
2022-09-13T00:46:44.675Z,56.51
2022-09-13T00:49:24.931Z,56.09
2022-09-13T00:51:56.434Z,56.32
2022-09-13T00:54:24.810Z,56.53
2022-09-13T00:56:54.736Z,56.25
2022-09-13T00:59:31.983Z,56.22
2022-09-13T01:01:58.833Z,56.25
2022-09-13T01:04:27.235Z,56.21
2022-09-13T01:06:58.553Z,56.39
2022-09-13T01:09:25.755Z,56.31
2022-09-13T01:12:04.590Z,56.17
2022-09-13T01:14:32.726Z,56.35
2022-09-13T01:16:59.467Z,56.41
2022-09-13T01:19:26.171Z,56.16
2022-09-13T01:22:44.305Z,56.73
2022-09-13T01:25:11.050Z,56.44
2022-09-13T01:28:01.938Z,56.33
2022-09-13T01:30:55.271Z,56.51
2022-09-13T01:33:37.096Z,56.54
2022-09-13T01:36:34.443Z,56.87
2022-09-13T01:39:05.144Z,56.74
2022-09-13T01:41:57.420Z,56.71
2022-09-13T01:44:45.687Z,56.71
2022-09-13T01:47:28.129Z,56.72
2022-09-13T01:50:07.569Z,56.53
2022-09-13T01:52:45.078Z,56.94
2022-09-13T01:55:23.742Z,56.63
2022-09-13T01:58:17.972Z,56.86
2022-09-13T02:01:11.513Z,56.63
2022-09-13T02:03:46.214Z,56.80
2022-09-13T02:06:17.483Z,56.48
2022-09-13T02:08:47.721Z,56.71
2022-09-13T02:11:17.341Z,56.62
2022-09-13T02:13:50.540Z,56.48
2022-09-13T02:16:22.636Z,56.70
2022-09-13T02:18:53.623Z,56.44
2022-09-13T02:21:28.266Z,56.76
2022-09-13T02:24:00.714Z,56.65
2022-09-13T02:26:28.821Z,56.59
2022-09-13T02:28:58.550Z,56.78
2022-09-13T02:31:29.809Z,56.92
2022-09-13T02:34:03.848Z,56.82
2022-09-13T02:36:34.991Z,56.87
2022-09-13T02:39:07.775Z,56.74
2022-09-13T02:41:57.794Z,56.76
2022-09-13T02:44:37.570Z,56.46
2022-09-13T02:47:23.000Z,56.83
2022-09-13T02:50:03.772Z,57.02
2022-09-13T02:52:33.691Z,56.69
2022-09-13T02:55:16.910Z,56.80
2022-09-13T02:58:05.161Z,57.04
2022-09-13T03:00:31.966Z,56.72
2022-09-13T03:03:03.017Z,56.75
2022-09-13T03:05:29.863Z,56.89
2022-09-13T03:07:56.688Z,56.87
2022-09-13T03:10:23.519Z,57.01
2022-09-13T03:13:24.175Z,57.22
2022-09-13T03:16:21.776Z,57.00
2022-09-13T03:19:01.471Z,56.94
2022-09-13T03:21:28.115Z,57.05
2022-09-13T03:24:19.548Z,57.05
2022-09-13T03:26:52.235Z,56.91
2022-09-13T03:29:31.734Z,57.38
2022-09-13T03:32:03.911Z,57.19
2022-09-13T03:34:38.273Z,57.36
2022-09-13T03:37:10.516Z,57.30
2022-09-13T03:39:43.241Z,57.08
2022-09-13T03:42:27.187Z,57.01
2022-09-13T03:44:55.863Z,56.80
2022-09-13T03:47:25.760Z,56.95
2022-09-13T03:49:53.046Z,57.01
2022-09-13T03:52:19.910Z,56.93
2022-09-13T03:54:46.666Z,57.04
2022-09-13T03:57:14.233Z,57.33
2022-09-13T03:59:49.999Z,57.30
2022-09-13T04:02:18.003Z,57.25
2022-09-13T04:04:45.732Z,57.51
2022-09-13T04:07:18.761Z,57.35
2022-09-13T04:09:46.096Z,57.04
2022-09-13T04:12:15.182Z,57.32
2022-09-13T04:14:43.911Z,57.33
2022-09-13T04:17:12.125Z,57.26
2022-09-13T04:19:39.034Z,57.39
2022-09-13T04:22:05.807Z,57.33
2022-09-13T04:24:32.517Z,57.25
2022-09-13T04:26:59.331Z,57.41
2022-09-13T04:29:27.137Z,57.22
2022-09-13T04:31:54.973Z,57.23
2022-09-13T04:34:25.113Z,57.52
2022-09-13T04:36:52.962Z,57.39
2022-09-13T04:39:20.632Z,57.25
2022-09-13T04:41:48.314Z,57.60
2022-09-13T04:44:16.374Z,57.19
2022-09-13T04:46:43.614Z,57.52
2022-09-13T04:49:11.470Z,57.26
2022-09-13T04:51:38.143Z,57.27
2022-09-13T04:54:05.470Z,57.78
2022-09-13T04:56:32.385Z,57.58
2022-09-13T04:58:59.085Z,57.99
2022-09-13T05:01:27.901Z,57.53
2022-09-13T05:03:55.481Z,57.63
2022-09-13T05:06:22.895Z,57.42
2022-09-13T05:08:55.283Z,57.45
2022-09-13T05:11:23.113Z,57.62
2022-09-13T05:13:53.054Z,57.37
2022-09-13T05:16:19.930Z,57.48
2022-09-13T05:18:46.701Z,57.29
2022-09-13T05:21:14.083Z,57.42
2022-09-13T05:23:40.840Z,57.29
2022-09-13T05:26:08.589Z,57.26
2022-09-13T05:28:36.529Z,57.53
2022-09-13T05:31:08.962Z,57.48
2022-09-13T05:33:37.906Z,57.41
2022-09-13T05:36:06.264Z,57.36
2022-09-13T05:38:33.374Z,57.01
2022-09-13T05:41:02.163Z,57.47
2022-09-13T05:43:32.855Z,57.10
2022-09-13T05:46:03.893Z,57.17
2022-09-13T05:48:30.814Z,57.22
2022-09-13T05:50:58.753Z,57.20
2022-09-13T05:53:25.725Z,57.54
2022-09-13T05:55:52.365Z,57.27
2022-09-13T05:58:19.065Z,57.63
2022-09-13T06:00:45.772Z,57.38
2022-09-13T06:03:12.660Z,57.28
2022-09-13T06:05:39.406Z,57.35
2022-09-13T06:08:06.199Z,57.37
2022-09-13T06:10:33.617Z,57.03
2022-09-13T06:13:00.306Z,57.25
2022-09-13T06:15:27.112Z,57.13
2022-09-13T06:17:53.862Z,57.12
2022-09-13T06:20:20.589Z,57.26
2022-09-13T06:22:48.537Z,56.79
2022-09-13T06:25:16.534Z,57.01
2022-09-13T06:27:43.193Z,56.90
2022-09-13T06:30:13.065Z,57.04
2022-09-13T06:32:40.004Z,56.93
2022-09-13T06:35:07.342Z,56.99
2022-09-13T06:37:34.334Z,56.84
2022-09-13T06:40:01.237Z,56.90
2022-09-13T06:42:28.136Z,56.90
2022-09-13T06:44:54.819Z,57.09
2022-09-13T06:47:21.525Z,56.85
2022-09-13T06:49:48.189Z,56.66
2022-09-13T06:52:14.900Z,56.86
2022-09-13T06:54:41.615Z,56.97
2022-09-13T06:57:08.778Z,56.73
2022-09-13T06:59:35.537Z,56.89
2022-09-13T07:02:02.480Z,56.85
2022-09-13T07:04:31.985Z,56.96
2022-09-13T07:06:59.955Z,56.73
2022-09-13T07:09:26.650Z,56.60
2022-09-13T07:11:55.114Z,56.86
2022-09-13T07:14:24.309Z,57.01
2022-09-13T07:16:51.858Z,57.13
2022-09-13T07:19:26.596Z,56.70
2022-09-13T07:21:54.643Z,56.66
2022-09-13T07:24:21.809Z,56.45
2022-09-13T07:26:49.135Z,56.54
2022-09-13T07:29:19.242Z,56.38
2022-09-13T07:31:49.279Z,56.15
2022-09-13T07:34:19.065Z,56.42
2022-09-13T07:36:47.306Z,56.31
2022-09-13T07:39:20.277Z,55.88
2022-09-13T07:41:49.683Z,56.14
2022-09-13T07:44:16.407Z,56.37
2022-09-13T07:46:45.996Z,55.85
2022-09-13T07:49:16.603Z,55.92
2022-09-13T07:51:44.250Z,55.64
2022-09-13T07:54:16.125Z,55.58
2022-09-13T07:56:43.309Z,55.57
2022-09-13T07:59:15.125Z,55.67
2022-09-13T08:01:43.950Z,55.46
2022-09-13T08:04:13.150Z,55.46
2022-09-13T08:06:40.865Z,55.08
2022-09-13T08:09:08.886Z,55.10
2022-09-13T08:11:38.545Z,55.14
2022-09-13T08:14:06.292Z,55.50
2022-09-13T08:16:33.959Z,55.22
2022-09-13T08:19:13.500Z,55.10
2022-09-13T11:57:37.265Z,44.65
2022-09-13T12:00:19.346Z,44.71
2022-09-13T12:03:16.250Z,44.23
2022-09-13T12:05:48.518Z,44.46
2022-09-13T12:08:20.598Z,44.55
2022-09-13T12:10:55.532Z,44.21
2022-09-13T12:13:25.607Z,44.64
2022-09-13T12:16:08.652Z,44.52
2022-09-13T12:18:43.344Z,44.12
2022-09-13T12:21:19.355Z,44.23
2022-09-13T12:24:01.528Z,44.60
2022-09-13T12:26:39.589Z,43.93
2022-09-13T12:29:26.481Z,44.42
2022-09-13T12:31:57.501Z,43.89
2022-09-13T12:34:28.048Z,43.71
2022-09-13T12:37:12.215Z,43.06
2022-09-13T12:39:41.920Z,43.42
2022-09-13T12:42:27.114Z,43.38
2022-09-13T12:45:03.885Z,43.00
2022-09-13T12:48:04.262Z,43.27
2022-09-13T12:50:57.375Z,43.08
2022-09-13T12:53:37.478Z,43.06
2022-09-13T12:56:23.201Z,43.23
2022-09-13T12:59:20.781Z,42.93
2022-09-13T13:01:50.336Z,43.13
2022-09-13T13:04:18.295Z,43.19
2022-09-13T13:06:54.922Z,42.69
2022-09-13T13:09:52.999Z,42.66
2022-09-13T13:12:39.918Z,42.36
2022-09-13T13:15:15.787Z,42.42
2022-09-13T13:17:45.859Z,41.95
2022-09-13T13:20:50.035Z,42.28
2022-09-13T13:23:24.310Z,42.10
2022-09-13T13:26:01.687Z,42.27
2022-09-13T13:28:44.314Z,42.17
2022-09-13T13:31:35.337Z,42.44
2022-09-13T13:34:04.110Z,42.52
2022-09-13T13:36:34.776Z,42.68
2022-09-13T13:39:02.242Z,42.55
2022-09-13T13:41:40.714Z,43.15
2022-09-13T13:44:18.124Z,43.32
2022-09-13T13:46:52.285Z,43.44
2022-09-13T13:49:52.674Z,44.35
2022-09-13T13:52:22.493Z,44.42
2022-09-13T13:54:55.610Z,44.79
2022-09-13T13:57:31.152Z,45.01
2022-09-13T14:00:08.975Z,45.67
2022-09-13T14:02:45.408Z,46.19
2022-09-13T14:05:30.947Z,46.27
2022-09-13T14:08:16.743Z,46.63
2022-09-13T14:10:46.296Z,46.86
2022-09-13T14:13:37.414Z,46.83
2022-09-13T14:16:29.417Z,47.11
2022-09-13T14:19:07.410Z,47.12
2022-09-13T14:21:34.290Z,47.74
2022-09-13T14:24:23.548Z,47.89
2022-09-13T14:26:52.810Z,47.64
2022-09-13T14:29:21.940Z,47.66
2022-09-13T14:32:11.275Z,47.27
2022-09-13T14:34:39.127Z,47.11
2022-09-13T14:37:17.055Z,47.07
2022-09-13T14:40:14.565Z,47.50
2022-09-13T14:42:43.949Z,47.87
2022-09-13T14:45:14.970Z,47.80
2022-09-13T14:47:53.921Z,47.69
2022-09-13T14:50:30.358Z,47.16
2022-09-13T14:53:01.008Z,46.69
2022-09-13T14:55:31.591Z,46.47
2022-09-13T14:58:04.656Z,46.56
2022-09-13T15:00:35.754Z,46.36
2022-09-13T15:03:05.512Z,45.89
2022-09-13T15:05:34.073Z,45.38
2022-09-13T15:08:00.795Z,45.84
2022-09-13T15:10:32.199Z,45.71
2022-09-13T15:12:58.906Z,45.50
2022-09-13T15:15:26.269Z,45.25
2022-09-13T15:17:59.607Z,45.24
2022-09-13T15:20:29.934Z,44.86
2022-09-13T15:22:57.129Z,45.13
2022-09-13T15:25:29.459Z,45.19
2022-09-13T15:27:57.206Z,43.47
2022-09-13T15:30:26.841Z,39.94
2022-09-13T15:33:09.250Z,36.84
2022-09-13T15:35:41.286Z,35.74
2022-09-13T15:38:28.404Z,36.74
2022-09-13T15:41:17.152Z,39.04
2022-09-13T15:43:44.294Z,40.86
2022-09-13T15:46:15.316Z,42.09
2022-09-13T15:48:49.179Z,43.21
2022-09-13T15:51:15.964Z,43.64
2022-09-13T15:53:45.740Z,44.37
2022-09-13T15:56:17.448Z,45.04
2022-09-13T15:58:44.348Z,45.34
2022-09-13T16:01:15.619Z,46.06
2022-09-13T16:03:43.009Z,46.35
2022-09-13T16:06:10.616Z,47.17
2022-09-13T16:08:38.062Z,47.96
2022-09-13T16:11:05.875Z,48.31
2022-09-13T16:13:32.947Z,48.86
2022-09-13T16:16:00.117Z,49.14
2022-09-13T16:18:27.018Z,49.14
2022-09-13T16:20:54.157Z,49.69
2022-09-13T16:23:21.227Z,49.93
2022-09-13T16:25:49.352Z,50.26
2022-09-13T16:28:20.947Z,50.36
2022-09-13T16:30:49.520Z,50.82
2022-09-13T16:33:16.348Z,50.86
2022-09-13T16:35:43.020Z,51.01
2022-09-13T16:38:10.857Z,51.51
2022-09-13T16:40:42.322Z,52.03
2022-09-13T16:43:09.630Z,52.23
2022-09-13T16:45:40.227Z,52.07
2022-09-13T16:48:07.854Z,52.47
2022-09-13T16:50:36.089Z,52.72
2022-09-13T16:53:02.928Z,53.37
2022-09-13T16:55:30.478Z,53.21
2022-09-13T16:57:57.314Z,53.75
2022-09-13T17:00:28.406Z,53.45
2022-09-13T17:02:56.715Z,54.14
2022-09-13T17:05:24.421Z,53.77
2022-09-13T17:07:51.931Z,53.89
2022-09-13T17:10:19.094Z,54.40
2022-09-13T17:12:45.794Z,54.14
2022-09-13T17:15:12.582Z,54.35
2022-09-13T17:17:39.292Z,54.40
2022-09-13T17:20:12.278Z,55.01
2022-09-13T17:22:39.633Z,55.21
2022-09-13T17:25:10.116Z,55.23
2022-09-13T17:27:36.849Z,55.47
2022-09-13T17:30:05.163Z,55.43
2022-09-13T17:32:32.014Z,55.62
2022-09-13T17:34:59.240Z,55.93
2022-09-13T17:37:26.080Z,55.85
2022-09-13T17:39:52.848Z,55.83
2022-09-13T17:42:23.189Z,55.64
2022-09-13T17:44:50.738Z,56.06
2022-09-13T17:47:17.390Z,55.72
2022-09-13T17:49:45.573Z,56.34
2022-09-13T17:52:12.489Z,56.20
2022-09-13T17:54:39.134Z,55.93
2022-09-13T17:57:06.744Z,56.16
2022-09-13T17:59:34.304Z,56.62
2022-09-13T18:02:01.204Z,56.65
2022-09-13T18:04:28.226Z,56.79
2022-09-13T18:06:55.298Z,57.20
2022-09-13T18:09:22.603Z,57.13
2022-09-13T18:11:50.587Z,57.44
2022-09-13T18:14:18.622Z,57.66
2022-09-13T18:16:46.635Z,57.41
2022-09-13T18:19:13.695Z,57.71
2022-09-13T18:21:40.641Z,57.71
2022-09-13T18:24:07.545Z,57.18
2022-09-13T18:26:34.906Z,57.46
2022-09-13T18:29:04.587Z,57.14
2022-09-13T18:31:32.779Z,57.31
2022-09-13T18:34:01.801Z,57.15
2022-09-13T18:36:29.546Z,57.51
2022-09-13T18:38:56.943Z,57.58
2022-09-13T18:41:30.522Z,57.23
2022-09-13T18:43:58.606Z,57.51
2022-09-13T18:46:27.950Z,57.77
2022-09-13T18:48:57.646Z,57.32
2022-09-13T18:53:59.640Z,57.42
2022-09-13T18:56:27.263Z,57.51
2022-09-13T18:58:54.949Z,57.50
2022-09-13T19:01:27.377Z,57.55
2022-09-13T19:03:59.935Z,58.28
2022-09-13T19:06:37.330Z,58.64
2022-09-13T19:09:05.538Z,58.25
2022-09-13T19:11:52.575Z,58.14
2022-09-13T19:14:24.662Z,58.54
2022-09-13T19:16:53.340Z,58.47
2022-09-13T19:19:20.652Z,58.25
2022-09-13T19:21:47.510Z,58.04
2022-09-13T19:24:19.091Z,58.50
2022-09-13T19:26:48.473Z,58.79
2022-09-13T19:29:17.891Z,58.43
2022-09-13T19:31:48.404Z,58.57
2022-09-13T19:34:17.542Z,58.39
2022-09-13T19:36:45.005Z,58.83
2022-09-13T19:39:12.237Z,58.81
2022-09-13T19:41:39.644Z,58.38
2022-09-13T19:44:07.195Z,58.54
2022-09-13T19:46:39.254Z,58.69
2022-09-13T19:49:08.171Z,58.57
2022-09-13T19:51:37.526Z,58.66
2022-09-13T19:54:05.570Z,59.12
2022-09-13T19:56:34.968Z,58.67
2022-09-13T19:59:02.233Z,58.98
2022-09-13T20:01:31.805Z,58.62
2022-09-13T20:04:00.687Z,59.01
2022-09-13T20:06:29.371Z,59.03
2022-09-13T20:09:00.282Z,58.82
2022-09-13T20:11:28.991Z,58.64
2022-09-13T20:13:59.132Z,58.64
2022-09-13T20:16:32.182Z,59.04
2022-09-13T20:18:59.014Z,58.93
2022-09-13T20:21:27.482Z,58.62
2022-09-13T20:23:56.123Z,59.15
2022-09-13T20:26:25.627Z,59.01
2022-09-13T20:29:03.123Z,59.28
2022-09-13T20:31:31.106Z,58.68
2022-09-13T20:34:00.516Z,59.18
2022-09-13T20:36:29.103Z,59.12
2022-09-13T20:39:02.309Z,59.04
2022-09-13T20:41:31.389Z,58.92
2022-09-13T20:43:59.851Z,58.99
2022-09-13T20:46:27.258Z,59.23
2022-09-13T20:48:54.048Z,59.50
2022-09-13T20:51:23.319Z,59.33
2022-09-13T20:53:58.070Z,59.34
2022-09-13T20:56:25.211Z,59.88
2022-09-13T20:59:01.972Z,59.64
2022-09-13T21:01:31.204Z,59.77
2022-09-13T21:03:58.808Z,59.50
2022-09-13T21:06:28.750Z,59.92
2022-09-13T21:09:03.158Z,60.14
2022-09-13T21:11:35.009Z,60.29
2022-09-13T21:14:04.471Z,59.98
2022-09-13T21:16:35.017Z,59.94
2022-09-13T21:19:02.561Z,60.28
2022-09-13T21:21:31.485Z,60.30
2022-09-13T21:24:00.518Z,60.95
2022-09-13T21:26:28.715Z,60.71
2022-09-13T21:28:56.103Z,60.85
2022-09-13T21:31:28.800Z,61.13
2022-09-13T21:34:06.106Z,60.99
2022-09-13T21:36:37.372Z,61.54
2022-09-13T21:39:04.938Z,61.36
2022-09-13T21:41:31.899Z,61.54
2022-09-13T21:43:58.582Z,61.14
2022-09-13T21:46:27.722Z,61.33
2022-09-13T21:48:56.085Z,61.46
2022-09-13T21:51:28.182Z,61.99
2022-09-13T21:53:58.997Z,61.75
2022-09-13T21:56:27.727Z,62.04
2022-09-13T21:58:58.333Z,62.06
2022-09-13T22:01:27.171Z,62.03
2022-09-13T22:03:54.410Z,62.07
2022-09-13T22:06:22.286Z,61.60
2022-09-13T22:08:51.174Z,61.66
2022-09-13T22:11:20.520Z,62.11
2022-09-13T22:13:47.727Z,61.93
2022-09-13T22:16:21.495Z,61.83
2022-09-13T22:18:50.366Z,61.94
2022-09-13T22:21:19.797Z,62.06
2022-09-13T22:23:46.847Z,62.12
2022-09-13T22:26:22.622Z,62.23
2022-09-13T22:28:49.439Z,62.25
2022-09-13T22:31:18.795Z,62.52
2022-09-13T22:33:46.203Z,62.50
2022-09-13T22:36:14.718Z,62.66
2022-09-13T22:38:43.041Z,63.14
2022-09-13T22:41:15.419Z,62.56
2022-09-13T22:43:42.888Z,62.99
2022-09-13T22:46:12.475Z,62.99
2022-09-13T22:48:40.149Z,62.61
2022-09-13T22:51:08.315Z,62.32
2022-09-13T22:53:36.987Z,62.87
2022-09-13T22:56:14.697Z,63.27
2022-09-13T22:58:42.261Z,63.03
2022-09-13T23:01:17.270Z,63.42
2022-09-13T23:03:45.395Z,63.75
2022-09-13T23:06:13.735Z,63.28
2022-09-13T23:08:40.780Z,63.37
2022-09-13T23:11:21.334Z,63.76
2022-09-13T23:13:50.251Z,63.78
2022-09-13T23:16:22.414Z,64.06
2022-09-13T23:18:49.475Z,64.11
2022-09-13T23:21:20.843Z,64.09
2022-09-13T23:23:48.036Z,64.25
2022-09-13T23:26:17.626Z,64.29
2022-09-13T23:28:45.827Z,64.28
2022-09-13T23:31:18.445Z,64.45
2022-09-13T23:33:47.164Z,64.62
2022-09-13T23:36:15.190Z,64.26
2022-09-13T23:38:45.812Z,64.66
2022-09-13T23:41:13.046Z,64.56
2022-09-13T23:43:39.747Z,64.80
2022-09-13T23:46:06.717Z,64.38
2022-09-13T23:48:34.869Z,64.45
2022-09-13T23:51:04.099Z,64.69
2022-09-13T23:53:31.428Z,64.98
2022-09-13T23:55:58.390Z,64.82
2022-09-13T23:58:25.390Z,65.13
